sensor_id;sensor_type;location;lat;lon;timestamp;temperature;humidity
38480;DHT22;62333;51.980;5.934;2024-03-17T00:01:38;11.40;64.80
38480;DHT22;62333;51.980;5.934;2024-03-17T00:04:04;11.40;64.90
38480;DHT22;62333;51.980;5.934;2024-03-17T00:06:30;11.40;65.00
38480;DHT22;62333;51.980;5.934;2024-03-17T00:08:56;11.40;65.00
38480;DHT22;62333;51.980;5.934;2024-03-17T00:11:21;11.40;65.10
38480;DHT22;62333;51.980;5.934;2024-03-17T00:13:47;11.40;65.70
38480;DHT22;62333;51.980;5.934;2024-03-17T00:16:13;11.40;65.10
38480;DHT22;62333;51.980;5.934;2024-03-17T00:18:39;11.40;65.20
38480;DHT22;62333;51.980;5.934;2024-03-17T00:21:06;11.40;65.20
38480;DHT22;62333;51.980;5.934;2024-03-17T00:23:32;11.40;65.20
38480;DHT22;62333;51.980;5.934;2024-03-17T00:25:57;11.40;65.20
38480;DHT22;62333;51.980;5.934;2024-03-17T00:28:23;11.30;65.20
38480;DHT22;62333;51.980;5.934;2024-03-17T00:30:50;11.30;65.40
38480;DHT22;62333;51.980;5.934;2024-03-17T00:33:16;11.30;65.50
38480;DHT22;62333;51.980;5.934;2024-03-17T00:35:42;11.30;65.60
38480;DHT22;62333;51.980;5.934;2024-03-17T00:38:07;11.30;65.70
38480;DHT22;62333;51.980;5.934;2024-03-17T00:40:39;11.30;65.60
38480;DHT22;62333;51.980;5.934;2024-03-17T00:43:10;11.30;65.60
38480;DHT22;62333;51.980;5.934;2024-03-17T00:45:37;11.30;65.60
38480;DHT22;62333;51.980;5.934;2024-03-17T00:48:03;11.40;65.70
38480;DHT22;62333;51.980;5.934;2024-03-17T00:50:28;11.30;65.70
38480;DHT22;62333;51.980;5.934;2024-03-17T00:52:54;11.30;65.70
38480;DHT22;62333;51.980;5.934;2024-03-17T00:55:20;11.30;65.80
38480;DHT22;62333;51.980;5.934;2024-03-17T00:57:45;11.30;65.80
38480;DHT22;62333;51.980;5.934;2024-03-17T01:00:11;11.30;65.90
38480;DHT22;62333;51.980;5.934;2024-03-17T01:02:37;11.20;65.80
38480;DHT22;62333;51.980;5.934;2024-03-17T01:05:03;11.30;65.90
38480;DHT22;62333;51.980;5.934;2024-03-17T01:07:33;11.20;65.90
38480;DHT22;62333;51.980;5.934;2024-03-17T01:09:59;11.30;66.00
38480;DHT22;62333;51.980;5.934;2024-03-17T01:12:25;11.20;65.90
38480;DHT22;62333;51.980;5.934;2024-03-17T01:14:51;11.20;65.90
38480;DHT22;62333;51.980;5.934;2024-03-17T01:17:17;11.20;66.00
38480;DHT22;62333;51.980;5.934;2024-03-17T01:19:44;11.20;66.40
38480;DHT22;62333;51.980;5.934;2024-03-17T01:22:10;11.20;66.10
38480;DHT22;62333;51.980;5.934;2024-03-17T01:24:36;11.20;66.80
38480;DHT22;62333;51.980;5.934;2024-03-17T01:27:02;11.20;66.20
38480;DHT22;62333;51.980;5.934;2024-03-17T01:29:28;11.20;66.20
38480;DHT22;62333;51.980;5.934;2024-03-17T01:31:54;11.20;66.30
38480;DHT22;62333;51.980;5.934;2024-03-17T01:34:22;11.20;66.30
38480;DHT22;62333;51.980;5.934;2024-03-17T01:36:48;11.20;66.40
38480;DHT22;62333;51.980;5.934;2024-03-17T01:39:14;11.20;66.50
38480;DHT22;62333;51.980;5.934;2024-03-17T01:41:41;11.10;66.60
38480;DHT22;62333;51.980;5.934;2024-03-17T01:44:07;11.10;66.70
38480;DHT22;62333;51.980;5.934;2024-03-17T01:46:33;11.10;66.70
38480;DHT22;62333;51.980;5.934;2024-03-17T01:48:59;11.10;66.80
38480;DHT22;62333;51.980;5.934;2024-03-17T01:51:24;11.10;66.80
38480;DHT22;62333;51.980;5.934;2024-03-17T01:53:50;11.10;66.90
38480;DHT22;62333;51.980;5.934;2024-03-17T01:56:16;11.10;66.90
38480;DHT22;62333;51.980;5.934;2024-03-17T01:58:46;11.10;66.90
38480;DHT22;62333;51.980;5.934;2024-03-17T02:01:12;11.10;66.90
38480;DHT22;62333;51.980;5.934;2024-03-17T02:03:41;11.10;67.00
38480;DHT22;62333;51.980;5.934;2024-03-17T02:06:08;11.10;67.00
38480;DHT22;62333;51.980;5.934;2024-03-17T02:08:55;11.10;67.00
38480;DHT22;62333;51.980;5.934;2024-03-17T02:11:28;11.10;66.90
38480;DHT22;62333;51.980;5.934;2024-03-17T02:13:55;11.10;67.20
38480;DHT22;62333;51.980;5.934;2024-03-17T02:16:24;11.10;67.20
38480;DHT22;62333;51.980;5.934;2024-03-17T02:18:57;11.10;67.30
38480;DHT22;62333;51.980;5.934;2024-03-17T02:21:23;11.10;67.10
38480;DHT22;62333;51.980;5.934;2024-03-17T02:23:53;11.00;67.30
38480;DHT22;62333;51.980;5.934;2024-03-17T02:26:19;11.00;67.30
38480;DHT22;62333;51.980;5.934;2024-03-17T02:28:46;11.00;67.40
38480;DHT22;62333;51.980;5.934;2024-03-17T02:31:15;11.00;67.50
38480;DHT22;62333;51.980;5.934;2024-03-17T02:33:41;11.00;67.50
38480;DHT22;62333;51.980;5.934;2024-03-17T02:36:07;11.00;67.60
38480;DHT22;62333;51.980;5.934;2024-03-17T02:38:33;11.00;67.70
38480;DHT22;62333;51.980;5.934;2024-03-17T02:41:18;11.00;67.70
38480;DHT22;62333;51.980;5.934;2024-03-17T02:43:44;11.00;67.80
38480;DHT22;62333;51.980;5.934;2024-03-17T02:46:14;10.90;67.80
38480;DHT22;62333;51.980;5.934;2024-03-17T02:48:41;10.90;67.80
38480;DHT22;62333;51.980;5.934;2024-03-17T02:51:13;10.90;67.90
38480;DHT22;62333;51.980;5.934;2024-03-17T02:53:43;10.90;68.00
38480;DHT22;62333;51.980;5.934;2024-03-17T02:56:10;11.00;68.10
38480;DHT22;62333;51.980;5.934;2024-03-17T02:58:37;10.90;68.10
38480;DHT22;62333;51.980;5.934;2024-03-17T03:01:04;10.90;68.20
38480;DHT22;62333;51.980;5.934;2024-03-17T03:03:30;10.90;68.30
38480;DHT22;62333;51.980;5.934;2024-03-17T03:05:56;10.90;68.40
38480;DHT22;62333;51.980;5.934;2024-03-17T03:08:22;10.90;68.40
38480;DHT22;62333;51.980;5.934;2024-03-17T03:10:48;11.00;68.50
38480;DHT22;62333;51.980;5.934;2024-03-17T03:13:14;11.00;68.50
38480;DHT22;62333;51.980;5.934;2024-03-17T03:15:40;10.90;68.50
38480;DHT22;62333;51.980;5.934;2024-03-17T03:18:05;11.00;68.60
38480;DHT22;62333;51.980;5.934;2024-03-17T03:20:31;10.90;68.60
38480;DHT22;62333;51.980;5.934;2024-03-17T03:22:57;10.90;68.70
38480;DHT22;62333;51.980;5.934;2024-03-17T03:25:22;10.80;68.80
38480;DHT22;62333;51.980;5.934;2024-03-17T03:27:49;10.80;69.10
38480;DHT22;62333;51.980;5.934;2024-03-17T03:30:14;10.80;69.20
38480;DHT22;62333;51.980;5.934;2024-03-17T03:32:41;10.90;69.30
38480;DHT22;62333;51.980;5.934;2024-03-17T03:35:08;10.90;69.30
38480;DHT22;62333;51.980;5.934;2024-03-17T03:37:34;10.90;69.30
38480;DHT22;62333;51.980;5.934;2024-03-17T03:40:00;11.00;69.30
38480;DHT22;62333;51.980;5.934;2024-03-17T03:42:26;11.00;69.30
38480;DHT22;62333;51.980;5.934;2024-03-17T03:44:51;11.00;69.30
38480;DHT22;62333;51.980;5.934;2024-03-17T03:47:17;11.00;69.40
38480;DHT22;62333;51.980;5.934;2024-03-17T03:49:43;11.00;69.40
38480;DHT22;62333;51.980;5.934;2024-03-17T03:52:10;11.00;69.40
38480;DHT22;62333;51.980;5.934;2024-03-17T03:54:36;11.00;69.40
38480;DHT22;62333;51.980;5.934;2024-03-17T03:57:02;11.00;69.40
38480;DHT22;62333;51.980;5.934;2024-03-17T03:59:28;11.00;69.50
38480;DHT22;62333;51.980;5.934;2024-03-17T04:01:54;10.90;69.50
38480;DHT22;62333;51.980;5.934;2024-03-17T04:04:20;10.90;69.70
38480;DHT22;62333;51.980;5.934;2024-03-17T04:06:45;10.90;69.90
38480;DHT22;62333;51.980;5.934;2024-03-17T04:09:12;10.90;70.00
38480;DHT22;62333;51.980;5.934;2024-03-17T04:11:37;10.90;70.00
38480;DHT22;62333;51.980;5.934;2024-03-17T04:14:03;10.90;69.90
38480;DHT22;62333;51.980;5.934;2024-03-17T04:16:30;10.90;69.90
38480;DHT22;62333;51.980;5.934;2024-03-17T04:18:57;10.90;69.90
38480;DHT22;62333;51.980;5.934;2024-03-17T04:21:22;10.90;69.90
38480;DHT22;62333;51.980;5.934;2024-03-17T04:23:48;10.80;70.00
38480;DHT22;62333;51.980;5.934;2024-03-17T04:26:14;10.80;70.10
38480;DHT22;62333;51.980;5.934;2024-03-17T04:28:40;10.80;70.20
38480;DHT22;62333;51.980;5.934;2024-03-17T04:31:06;10.70;70.20
38480;DHT22;62333;51.980;5.934;2024-03-17T04:33:32;10.70;70.30
38480;DHT22;62333;51.980;5.934;2024-03-17T04:35:58;10.70;70.40
38480;DHT22;62333;51.980;5.934;2024-03-17T04:38:24;10.80;70.50
38480;DHT22;62333;51.980;5.934;2024-03-17T04:40:50;10.80;70.50
38480;DHT22;62333;51.980;5.934;2024-03-17T04:43:15;10.90;70.50
38480;DHT22;62333;51.980;5.934;2024-03-17T04:45:41;10.90;70.40
38480;DHT22;62333;51.980;5.934;2024-03-17T04:48:07;10.90;70.40
38480;DHT22;62333;51.980;5.934;2024-03-17T04:50:33;10.80;70.40
38480;DHT22;62333;51.980;5.934;2024-03-17T04:52:59;10.80;70.40
38480;DHT22;62333;51.980;5.934;2024-03-17T04:55:25;10.80;70.50
38480;DHT22;62333;51.980;5.934;2024-03-17T04:57:51;10.80;70.60
38480;DHT22;62333;51.980;5.934;2024-03-17T05:00:16;10.80;70.60
38480;DHT22;62333;51.980;5.934;2024-03-17T05:02:44;10.80;70.70
38480;DHT22;62333;51.980;5.934;2024-03-17T05:05:10;10.80;70.70
38480;DHT22;62333;51.980;5.934;2024-03-17T05:07:36;10.80;70.70
38480;DHT22;62333;51.980;5.934;2024-03-17T05:10:03;10.80;70.60
38480;DHT22;62333;51.980;5.934;2024-03-17T05:12:29;10.80;70.70
38480;DHT22;62333;51.980;5.934;2024-03-17T05:14:54;10.80;70.70
38480;DHT22;62333;51.980;5.934;2024-03-17T05:17:20;10.80;70.70
38480;DHT22;62333;51.980;5.934;2024-03-17T05:19:45;10.70;70.70
38480;DHT22;62333;51.980;5.934;2024-03-17T05:22:11;10.80;70.80
38480;DHT22;62333;51.980;5.934;2024-03-17T05:24:37;10.80;70.80
38480;DHT22;62333;51.980;5.934;2024-03-17T05:27:03;10.80;70.80
38480;DHT22;62333;51.980;5.934;2024-03-17T05:29:29;10.80;70.80
38480;DHT22;62333;51.980;5.934;2024-03-17T05:31:55;10.80;70.60
38480;DHT22;62333;51.980;5.934;2024-03-17T05:34:21;10.90;70.70
38480;DHT22;62333;51.980;5.934;2024-03-17T05:36:46;10.80;70.70
38480;DHT22;62333;51.980;5.934;2024-03-17T05:39:12;10.80;70.70
38480;DHT22;62333;51.980;5.934;2024-03-17T05:41:38;10.90;70.90
38480;DHT22;62333;51.980;5.934;2024-03-17T05:44:04;10.90;70.90
38480;DHT22;62333;51.980;5.934;2024-03-17T05:46:30;10.90;70.80
38480;DHT22;62333;51.980;5.934;2024-03-17T05:48:55;10.90;70.80
38480;DHT22;62333;51.980;5.934;2024-03-17T05:51:21;10.90;70.90
38480;DHT22;62333;51.980;5.934;2024-03-17T05:53:47;10.80;70.90
38480;DHT22;62333;51.980;5.934;2024-03-17T05:56:13;10.80;70.90
38480;DHT22;62333;51.980;5.934;2024-03-17T05:58:41;10.80;71.00
38480;DHT22;62333;51.980;5.934;2024-03-17T06:01:07;10.80;71.10
38480;DHT22;62333;51.980;5.934;2024-03-17T06:03:36;10.80;71.20
38480;DHT22;62333;51.980;5.934;2024-03-17T06:06:03;10.80;71.20
38480;DHT22;62333;51.980;5.934;2024-03-17T06:08:29;10.80;71.20
38480;DHT22;62333;51.980;5.934;2024-03-17T06:10:54;10.80;71.20
38480;DHT22;62333;51.980;5.934;2024-03-17T06:13:22;10.80;71.30
38480;DHT22;62333;51.980;5.934;2024-03-17T06:15:48;10.80;71.30
38480;DHT22;62333;51.980;5.934;2024-03-17T06:18:14;10.80;71.50
38480;DHT22;62333;51.980;5.934;2024-03-17T06:20:46;10.70;71.50
38480;DHT22;62333;51.980;5.934;2024-03-17T06:23:13;10.80;71.70
38480;DHT22;62333;51.980;5.934;2024-03-17T06:25:44;10.80;71.70
38480;DHT22;62333;51.980;5.934;2024-03-17T06:28:11;10.80;71.70
38480;DHT22;62333;51.980;5.934;2024-03-17T06:30:40;10.80;71.80
38480;DHT22;62333;51.980;5.934;2024-03-17T06:33:06;10.90;71.90
38480;DHT22;62333;51.980;5.934;2024-03-17T06:35:31;10.90;71.80
38480;DHT22;62333;51.980;5.934;2024-03-17T06:38:00;11.00;72.10
38480;DHT22;62333;51.980;5.934;2024-03-17T06:40:28;11.10;72.80
38480;DHT22;62333;51.980;5.934;2024-03-17T06:42:54;11.20;75.70
38480;DHT22;62333;51.980;5.934;2024-03-17T06:45:20;11.40;80.10
38480;DHT22;62333;51.980;5.934;2024-03-17T06:47:46;11.60;83.50
38480;DHT22;62333;51.980;5.934;2024-03-17T06:50:12;11.90;84.00
38480;DHT22;62333;51.980;5.934;2024-03-17T06:52:38;12.00;82.30
38480;DHT22;62333;51.980;5.934;2024-03-17T06:55:04;12.10;81.70
38480;DHT22;62333;51.980;5.934;2024-03-17T06:57:30;12.30;81.10
38480;DHT22;62333;51.980;5.934;2024-03-17T06:59:56;12.30;80.40
38480;DHT22;62333;51.980;5.934;2024-03-17T07:02:21;12.40;78.40
38480;DHT22;62333;51.980;5.934;2024-03-17T07:04:47;12.50;78.30
38480;DHT22;62333;51.980;5.934;2024-03-17T07:07:14;12.60;76.60
38480;DHT22;62333;51.980;5.934;2024-03-17T07:09:40;12.70;75.60
38480;DHT22;62333;51.980;5.934;2024-03-17T07:12:10;12.70;75.10
38480;DHT22;62333;51.980;5.934;2024-03-17T07:14:36;12.80;72.80
38480;DHT22;62333;51.980;5.934;2024-03-17T07:17:02;12.80;71.00
38480;DHT22;62333;51.980;5.934;2024-03-17T07:19:28;12.80;69.80
38480;DHT22;62333;51.980;5.934;2024-03-17T07:21:56;12.80;68.80
38480;DHT22;62333;51.980;5.934;2024-03-17T07:24:22;12.70;68.20
38480;DHT22;62333;51.980;5.934;2024-03-17T07:26:49;12.70;67.90
38480;DHT22;62333;51.980;5.934;2024-03-17T07:29:15;12.70;67.80
38480;DHT22;62333;51.980;5.934;2024-03-17T07:31:41;12.70;67.40
38480;DHT22;62333;51.980;5.934;2024-03-17T07:34:07;12.70;67.40
38480;DHT22;62333;51.980;5.934;2024-03-17T07:36:32;12.60;67.50
38480;DHT22;62333;51.980;5.934;2024-03-17T07:38:58;12.60;67.10
38480;DHT22;62333;51.980;5.934;2024-03-17T07:41:24;12.50;67.10
38480;DHT22;62333;51.980;5.934;2024-03-17T07:43:50;12.50;66.90
38480;DHT22;62333;51.980;5.934;2024-03-17T07:46:16;12.60;66.80
38480;DHT22;62333;51.980;5.934;2024-03-17T07:48:43;12.70;70.40
38480;DHT22;62333;51.980;5.934;2024-03-17T07:51:11;12.80;72.80
38480;DHT22;62333;51.980;5.934;2024-03-17T07:53:38;12.90;73.40
38480;DHT22;62333;51.980;5.934;2024-03-17T07:56:07;13.00;72.20
38480;DHT22;62333;51.980;5.934;2024-03-17T07:58:35;13.10;71.60
38480;DHT22;62333;51.980;5.934;2024-03-17T08:01:02;13.10;71.10
38480;DHT22;62333;51.980;5.934;2024-03-17T08:03:29;13.20;70.90
38480;DHT22;62333;51.980;5.934;2024-03-17T08:05:57;13.20;70.90
38480;DHT22;62333;51.980;5.934;2024-03-17T08:08:23;13.30;70.60
38480;DHT22;62333;51.980;5.934;2024-03-17T08:10:49;13.30;69.80
38480;DHT22;62333;51.980;5.934;2024-03-17T08:13:19;13.40;69.40
38480;DHT22;62333;51.980;5.934;2024-03-17T08:15:46;13.40;68.90
38480;DHT22;62333;51.980;5.934;2024-03-17T08:18:12;13.40;68.70
38480;DHT22;62333;51.980;5.934;2024-03-17T08:20:41;13.50;68.50
38480;DHT22;62333;51.980;5.934;2024-03-17T08:23:12;13.50;68.10
38480;DHT22;62333;51.980;5.934;2024-03-17T08:25:38;13.50;67.90
38480;DHT22;62333;51.980;5.934;2024-03-17T08:28:04;13.60;67.60
38480;DHT22;62333;51.980;5.934;2024-03-17T08:30:30;13.60;67.30
38480;DHT22;62333;51.980;5.934;2024-03-17T08:32:59;13.50;67.00
38480;DHT22;62333;51.980;5.934;2024-03-17T08:35:25;13.60;66.90
38480;DHT22;62333;51.980;5.934;2024-03-17T08:37:51;13.60;66.80
38480;DHT22;62333;51.980;5.934;2024-03-17T08:40:19;13.70;67.10
38480;DHT22;62333;51.980;5.934;2024-03-17T08:42:45;13.70;67.30
38480;DHT22;62333;51.980;5.934;2024-03-17T08:45:11;13.80;67.20
38480;DHT22;62333;51.980;5.934;2024-03-17T08:47:38;13.80;67.40
38480;DHT22;62333;51.980;5.934;2024-03-17T08:50:04;13.90;67.30
38480;DHT22;62333;51.980;5.934;2024-03-17T08:52:30;13.90;66.90
38480;DHT22;62333;51.980;5.934;2024-03-17T08:54:59;14.00;66.50
38480;DHT22;62333;51.980;5.934;2024-03-17T08:57:25;14.00;65.80
38480;DHT22;62333;51.980;5.934;2024-03-17T08:59:51;14.00;65.40
38480;DHT22;62333;51.980;5.934;2024-03-17T09:02:18;14.00;65.20
38480;DHT22;62333;51.980;5.934;2024-03-17T09:04:45;14.00;65.20
38480;DHT22;62333;51.980;5.934;2024-03-17T09:07:10;13.90;64.90
38480;DHT22;62333;51.980;5.934;2024-03-17T09:09:36;13.90;64.50
38480;DHT22;62333;51.980;5.934;2024-03-17T09:12:02;13.90;64.30
38480;DHT22;62333;51.980;5.934;2024-03-17T09:14:29;13.80;63.80
38480;DHT22;62333;51.980;5.934;2024-03-17T09:16:54;13.80;64.00
38480;DHT22;62333;51.980;5.934;2024-03-17T09:19:20;13.80;64.00
38480;DHT22;62333;51.980;5.934;2024-03-17T09:21:46;13.70;63.90
38480;DHT22;62333;51.980;5.934;2024-03-17T09:24:12;13.70;63.60
38480;DHT22;62333;51.980;5.934;2024-03-17T09:26:38;13.70;63.40
38480;DHT22;62333;51.980;5.934;2024-03-17T09:29:05;13.70;63.50
38480;DHT22;62333;51.980;5.934;2024-03-17T09:31:31;13.70;63.40
38480;DHT22;62333;51.980;5.934;2024-03-17T09:33:59;13.70;63.50
38480;DHT22;62333;51.980;5.934;2024-03-17T09:36:24;13.70;63.50
38480;DHT22;62333;51.980;5.934;2024-03-17T09:38:51;13.70;63.50
38480;DHT22;62333;51.980;5.934;2024-03-17T09:41:21;13.80;63.50
38480;DHT22;62333;51.980;5.934;2024-03-17T09:43:48;13.80;63.50
38480;DHT22;62333;51.980;5.934;2024-03-17T09:46:15;13.80;63.80
38480;DHT22;62333;51.980;5.934;2024-03-17T09:48:41;13.80;63.90
38480;DHT22;62333;51.980;5.934;2024-03-17T09:51:20;13.80;64.20
38480;DHT22;62333;51.980;5.934;2024-03-17T09:53:46;13.80;64.50
38480;DHT22;62333;51.980;5.934;2024-03-17T09:56:14;13.70;64.60
38480;DHT22;62333;51.980;5.934;2024-03-17T09:58:47;13.70;65.50
38480;DHT22;62333;51.980;5.934;2024-03-17T10:01:13;13.70;65.00
38480;DHT22;62333;51.980;5.934;2024-03-17T10:06:09;13.70;64.80
38480;DHT22;62333;51.980;5.934;2024-03-17T10:08:44;13.70;65.10
38480;DHT22;62333;51.980;5.934;2024-03-17T10:11:12;13.70;65.30
38480;DHT22;62333;51.980;5.934;2024-03-17T10:13:39;13.70;65.40
38480;DHT22;62333;51.980;5.934;2024-03-17T10:16:05;13.70;65.40
38480;DHT22;62333;51.980;5.934;2024-03-17T10:18:31;13.70;65.50
38480;DHT22;62333;51.980;5.934;2024-03-17T10:20:57;13.70;65.80
38480;DHT22;62333;51.980;5.934;2024-03-17T10:23:24;13.80;66.00
38480;DHT22;62333;51.980;5.934;2024-03-17T10:25:50;13.80;66.10
38480;DHT22;62333;51.980;5.934;2024-03-17T10:28:17;13.80;66.10
38480;DHT22;62333;51.980;5.934;2024-03-17T10:30:58;13.80;66.00
38480;DHT22;62333;51.980;5.934;2024-03-17T10:33:25;13.90;65.80
38480;DHT22;62333;51.980;5.934;2024-03-17T10:35:58;13.90;66.20
38480;DHT22;62333;51.980;5.934;2024-03-17T10:38:25;14.00;66.20
38480;DHT22;62333;51.980;5.934;2024-03-17T10:40:51;14.00;66.50
38480;DHT22;62333;51.980;5.934;2024-03-17T10:43:16;14.00;66.60
38480;DHT22;62333;51.980;5.934;2024-03-17T10:45:43;14.00;66.50
38480;DHT22;62333;51.980;5.934;2024-03-17T10:48:09;14.00;66.40
38480;DHT22;62333;51.980;5.934;2024-03-17T10:50:39;14.10;66.50
38480;DHT22;62333;51.980;5.934;2024-03-17T10:53:06;14.10;66.30
38480;DHT22;62333;51.980;5.934;2024-03-17T10:55:45;14.10;66.30
38480;DHT22;62333;51.980;5.934;2024-03-17T10:58:36;14.20;66.20
38480;DHT22;62333;51.980;5.934;2024-03-17T11:01:05;14.30;66.30
38480;DHT22;62333;51.980;5.934;2024-03-17T11:03:33;14.20;66.40
38480;DHT22;62333;51.980;5.934;2024-03-17T11:06:02;14.20;66.30
38480;DHT22;62333;51.980;5.934;2024-03-17T11:08:33;14.20;66.20
38480;DHT22;62333;51.980;5.934;2024-03-17T11:10:59;14.20;66.20
38480;DHT22;62333;51.980;5.934;2024-03-17T11:13:29;14.20;66.40
38480;DHT22;62333;51.980;5.934;2024-03-17T11:15:58;14.20;66.40
38480;DHT22;62333;51.980;5.934;2024-03-17T11:21:01;14.30;66.40
38480;DHT22;62333;51.980;5.934;2024-03-17T11:23:33;14.30;66.20
38480;DHT22;62333;51.980;5.934;2024-03-17T11:25:59;14.30;66.40
38480;DHT22;62333;51.980;5.934;2024-03-17T11:31:48;14.30;66.40
38480;DHT22;62333;51.980;5.934;2024-03-17T11:34:31;14.20;66.40
38480;DHT22;62333;51.980;5.934;2024-03-17T11:36:58;14.20;66.60
38480;DHT22;62333;51.980;5.934;2024-03-17T11:39:46;14.20;66.60
38480;DHT22;62333;51.980;5.934;2024-03-17T11:42:15;14.20;66.50
38480;DHT22;62333;51.980;5.934;2024-03-17T11:44:59;14.10;66.60
38480;DHT22;62333;51.980;5.934;2024-03-17T11:47:33;14.20;66.60
38480;DHT22;62333;51.980;5.934;2024-03-17T11:50:05;14.20;66.80
38480;DHT22;62333;51.980;5.934;2024-03-17T11:52:32;14.20;66.80
38480;DHT22;62333;51.980;5.934;2024-03-17T11:54:58;14.20;66.90
38480;DHT22;62333;51.980;5.934;2024-03-17T11:57:25;14.20;66.90
38480;DHT22;62333;51.980;5.934;2024-03-17T11:59:52;14.30;67.10
38480;DHT22;62333;51.980;5.934;2024-03-17T12:04:46;14.20;66.90
38480;DHT22;62333;51.980;5.934;2024-03-17T12:07:14;14.20;66.70
38480;DHT22;62333;51.980;5.934;2024-03-17T12:09:41;14.30;66.70
38480;DHT22;62333;51.980;5.934;2024-03-17T12:12:21;14.30;66.60
38480;DHT22;62333;51.980;5.934;2024-03-17T12:14:49;14.30;66.60
38480;DHT22;62333;51.980;5.934;2024-03-17T12:17:22;14.30;66.60
38480;DHT22;62333;51.980;5.934;2024-03-17T12:19:49;14.40;66.60
38480;DHT22;62333;51.980;5.934;2024-03-17T12:22:22;14.30;66.40
38480;DHT22;62333;51.980;5.934;2024-03-17T12:24:52;14.30;66.50
38480;DHT22;62333;51.980;5.934;2024-03-17T12:27:26;14.30;66.60
38480;DHT22;62333;51.980;5.934;2024-03-17T12:29:52;14.30;66.60
38480;DHT22;62333;51.980;5.934;2024-03-17T12:32:20;14.30;66.70
38480;DHT22;62333;51.980;5.934;2024-03-17T12:34:56;14.40;66.70
38480;DHT22;62333;51.980;5.934;2024-03-17T12:37:24;14.40;66.60
38480;DHT22;62333;51.980;5.934;2024-03-17T12:40:02;14.40;66.50
38480;DHT22;62333;51.980;5.934;2024-03-17T12:42:29;14.40;66.40
38480;DHT22;62333;51.980;5.934;2024-03-17T12:45:00;14.40;66.40
38480;DHT22;62333;51.980;5.934;2024-03-17T12:47:32;14.40;66.30
38480;DHT22;62333;51.980;5.934;2024-03-17T12:50:01;14.50;66.50
38480;DHT22;62333;51.980;5.934;2024-03-17T12:52:31;14.50;66.40
38480;DHT22;62333;51.980;5.934;2024-03-17T12:54:57;14.50;66.30
38480;DHT22;62333;51.980;5.934;2024-03-17T12:57:41;14.50;66.30
38480;DHT22;62333;51.980;5.934;2024-03-17T13:00:25;14.60;66.40
38480;DHT22;62333;51.980;5.934;2024-03-17T13:03:04;14.60;66.30
38480;DHT22;62333;51.980;5.934;2024-03-17T13:05:33;14.60;66.30
38480;DHT22;62333;51.980;5.934;2024-03-17T13:07:59;14.70;66.20
38480;DHT22;62333;51.980;5.934;2024-03-17T13:10:27;14.70;66.30
38480;DHT22;62333;51.980;5.934;2024-03-17T13:13:08;14.60;66.20
38480;DHT22;62333;51.980;5.934;2024-03-17T13:15:35;14.60;66.10
38480;DHT22;62333;51.980;5.934;2024-03-17T13:18:04;14.60;66.40
38480;DHT22;62333;51.980;5.934;2024-03-17T13:20:31;14.60;66.50
38480;DHT22;62333;51.980;5.934;2024-03-17T13:22:57;14.60;66.50
38480;DHT22;62333;51.980;5.934;2024-03-17T13:25:30;14.60;66.60
38480;DHT22;62333;51.980;5.934;2024-03-17T13:28:00;14.70;66.70
38480;DHT22;62333;51.980;5.934;2024-03-17T13:30:27;14.70;66.60
38480;DHT22;62333;51.980;5.934;2024-03-17T13:32:54;14.70;66.60
38480;DHT22;62333;51.980;5.934;2024-03-17T13:35:30;14.70;66.60
38480;DHT22;62333;51.980;5.934;2024-03-17T13:37:57;14.70;66.60
38480;DHT22;62333;51.980;5.934;2024-03-17T13:40:27;14.70;66.70
38480;DHT22;62333;51.980;5.934;2024-03-17T13:42:54;14.70;66.70
38480;DHT22;62333;51.980;5.934;2024-03-17T13:45:23;14.80;66.70
38480;DHT22;62333;51.980;5.934;2024-03-17T13:48:02;14.80;66.70
38480;DHT22;62333;51.980;5.934;2024-03-17T13:50:29;14.80;66.50
38480;DHT22;62333;51.980;5.934;2024-03-17T13:52:56;14.80;66.70
38480;DHT22;62333;51.980;5.934;2024-03-17T13:55:23;14.80;66.80
38480;DHT22;62333;51.980;5.934;2024-03-17T13:57:55;14.80;66.80
38480;DHT22;62333;51.980;5.934;2024-03-17T14:00:24;14.90;67.00
38480;DHT22;62333;51.980;5.934;2024-03-17T14:02:51;14.90;67.00
38480;DHT22;62333;51.980;5.934;2024-03-17T14:05:20;14.90;67.20
38480;DHT22;62333;51.980;5.934;2024-03-17T14:07:47;14.90;67.10
38480;DHT22;62333;51.980;5.934;2024-03-17T14:10:17;15.00;67.10
38480;DHT22;62333;51.980;5.934;2024-03-17T14:12:43;15.00;66.90
38480;DHT22;62333;51.980;5.934;2024-03-17T14:15:11;15.00;67.00
38480;DHT22;62333;51.980;5.934;2024-03-17T14:17:41;15.00;67.10
38480;DHT22;62333;51.980;5.934;2024-03-17T14:20:08;15.10;67.20
38480;DHT22;62333;51.980;5.934;2024-03-17T14:22:37;15.00;67.20
38480;DHT22;62333;51.980;5.934;2024-03-17T14:25:07;15.00;67.20
38480;DHT22;62333;51.980;5.934;2024-03-17T14:27:33;15.10;67.10
38480;DHT22;62333;51.980;5.934;2024-03-17T14:30:00;15.10;67.10
38480;DHT22;62333;51.980;5.934;2024-03-17T14:32:25;15.00;67.00
38480;DHT22;62333;51.980;5.934;2024-03-17T14:34:51;15.00;67.00
38480;DHT22;62333;51.980;5.934;2024-03-17T14:37:17;15.10;67.10
38480;DHT22;62333;51.980;5.934;2024-03-17T14:39:42;15.10;67.00
38480;DHT22;62333;51.980;5.934;2024-03-17T14:42:09;15.10;67.10
38480;DHT22;62333;51.980;5.934;2024-03-17T14:44:36;15.10;66.80
38480;DHT22;62333;51.980;5.934;2024-03-17T14:47:02;15.10;67.10
38480;DHT22;62333;51.980;5.934;2024-03-17T14:49:30;15.10;67.10
38480;DHT22;62333;51.980;5.934;2024-03-17T14:51:56;15.10;67.10
38480;DHT22;62333;51.980;5.934;2024-03-17T14:54:22;15.20;67.20
38480;DHT22;62333;51.980;5.934;2024-03-17T14:56:48;15.20;67.10
38480;DHT22;62333;51.980;5.934;2024-03-17T14:59:13;15.20;67.20
38480;DHT22;62333;51.980;5.934;2024-03-17T15:01:42;15.20;67.20
38480;DHT22;62333;51.980;5.934;2024-03-17T15:04:08;15.20;67.10
38480;DHT22;62333;51.980;5.934;2024-03-17T15:06:34;15.20;67.60
38480;DHT22;62333;51.980;5.934;2024-03-17T15:09:01;15.30;67.20
38480;DHT22;62333;51.980;5.934;2024-03-17T15:11:27;15.30;67.10
38480;DHT22;62333;51.980;5.934;2024-03-17T15:13:52;15.20;67.10
38480;DHT22;62333;51.980;5.934;2024-03-17T15:16:18;15.20;67.10
38480;DHT22;62333;51.980;5.934;2024-03-17T15:18:44;15.30;67.30
38480;DHT22;62333;51.980;5.934;2024-03-17T15:21:10;15.30;67.30
38480;DHT22;62333;51.980;5.934;2024-03-17T15:23:35;15.30;67.30
38480;DHT22;62333;51.980;5.934;2024-03-17T15:26:05;15.40;67.40
38480;DHT22;62333;51.980;5.934;2024-03-17T15:28:39;15.40;67.40
38480;DHT22;62333;51.980;5.934;2024-03-17T15:31:06;15.40;67.40
38480;DHT22;62333;51.980;5.934;2024-03-17T15:33:35;15.40;67.40
38480;DHT22;62333;51.980;5.934;2024-03-17T15:36:03;15.40;67.20
38480;DHT22;62333;51.980;5.934;2024-03-17T15:38:33;15.40;67.10
38480;DHT22;62333;51.980;5.934;2024-03-17T15:41:02;15.50;66.90
38480;DHT22;62333;51.980;5.934;2024-03-17T15:43:28;15.40;66.80